sensor_id;sensor_type;location;lat;lon;timestamp;pressure;altitude;pressure_sealevel;temperature;humidity
54854;BME280;40747;49.480;8.658;2023-04-06T00:00:23;100624.34;;;2.96;61.77
54854;BME280;40747;49.480;8.658;2023-04-06T00:02:48;100630.50;;;3.09;61.37
54854;BME280;40747;49.480;8.658;2023-04-06T00:05:14;100619.25;;;3.19;61.58
54854;BME280;40747;49.480;8.658;2023-04-06T00:07:40;100614.09;;;3.25;61.60
54854;BME280;40747;49.480;8.658;2023-04-06T00:10:05;100624.53;;;3.35;62.37
54854;BME280;40747;49.480;8.658;2023-04-06T00:12:31;100615.78;;;3.22;61.39
54854;BME280;40747;49.480;8.658;2023-04-06T00:14:56;100617.53;;;3.26;61.76
54854;BME280;40747;49.480;8.658;2023-04-06T00:17:22;100614.13;;;3.33;61.77
54854;BME280;40747;49.480;8.658;2023-04-06T00:19:47;100611.47;;;3.22;62.15
54854;BME280;40747;49.480;8.658;2023-04-06T00:22:12;100611.56;;;3.46;62.33
54854;BME280;40747;49.480;8.658;2023-04-06T00:24:38;100595.94;;;3.55;61.89
54854;BME280;40747;49.480;8.658;2023-04-06T00:27:03;100608.16;;;3.71;60.74
54854;BME280;40747;49.480;8.658;2023-04-06T00:29:31;100580.34;;;3.67;60.62
54854;BME280;40747;49.480;8.658;2023-04-06T00:31:56;100604.72;;;3.88;60.68
54854;BME280;40747;49.480;8.658;2023-04-06T00:34:21;100593.41;;;3.76;61.03
54854;BME280;40747;49.480;8.658;2023-04-06T00:36:47;100585.53;;;3.64;61.32
54854;BME280;40747;49.480;8.658;2023-04-06T00:39:12;100605.53;;;3.71;61.29
54854;BME280;40747;49.480;8.658;2023-04-06T00:41:38;100607.28;;;3.77;61.67
54854;BME280;40747;49.480;8.658;2023-04-06T00:44:04;100602.97;;;3.87;61.95
54854;BME280;40747;49.480;8.658;2023-04-06T00:46:29;100602.94;;;3.90;61.23
54854;BME280;40747;49.480;8.658;2023-04-06T00:48:56;100600.34;;;3.90;61.71
54854;BME280;40747;49.480;8.658;2023-04-06T00:51:22;100594.28;;;3.91;62.81
54854;BME280;40747;49.480;8.658;2023-04-06T00:53:47;100599.50;;;3.97;61.56
54854;BME280;40747;49.480;8.658;2023-04-06T00:56:13;100589.06;;;3.88;61.83
54854;BME280;40747;49.480;8.658;2023-04-06T00:58:38;100592.53;;;3.93;61.70
54854;BME280;40747;49.480;8.658;2023-04-06T01:01:04;100583.00;;;3.89;61.67
54854;BME280;40747;49.480;8.658;2023-04-06T01:03:30;100577.75;;;3.70;62.25
54854;BME280;40747;49.480;8.658;2023-04-06T01:05:55;100579.50;;;3.70;62.32
54854;BME280;40747;49.480;8.658;2023-04-06T01:08:23;100575.16;;;3.80;62.51
54854;BME280;40747;49.480;8.658;2023-04-06T01:10:49;100575.16;;;3.75;63.04
54854;BME280;40747;49.480;8.658;2023-04-06T01:13:14;100588.09;;;3.39;64.48
54854;BME280;40747;49.480;8.658;2023-04-06T01:15:40;100584.47;;;3.00;65.34
54854;BME280;40747;49.480;8.658;2023-04-06T01:18:08;100586.22;;;2.98;66.11
54854;BME280;40747;49.480;8.658;2023-04-06T01:20:35;100592.28;;;2.95;66.73
54854;BME280;40747;49.480;8.658;2023-04-06T01:23:00;100587.88;;;2.85;66.93
54854;BME280;40747;49.480;8.658;2023-04-06T01:25:26;100581.88;;;3.00;66.71
54854;BME280;40747;49.480;8.658;2023-04-06T01:27:51;100584.50;;;3.03;66.64
54854;BME280;40747;49.480;8.658;2023-04-06T01:30:16;100582.75;;;3.05;66.73
54854;BME280;40747;49.480;8.658;2023-04-06T01:32:42;100570.53;;;2.86;66.67
54854;BME280;40747;49.480;8.658;2023-04-06T01:35:08;100568.88;;;3.06;66.74
54854;BME280;40747;49.480;8.658;2023-04-06T01:37:33;100554.16;;;3.08;66.13
54854;BME280;40747;49.480;8.658;2023-04-06T01:39:59;100561.16;;;3.39;64.53
54854;BME280;40747;49.480;8.658;2023-04-06T01:42:25;100556.00;;;3.47;64.65
54854;BME280;40747;49.480;8.658;2023-04-06T01:44:51;100564.69;;;3.52;64.02
54854;BME280;40747;49.480;8.658;2023-04-06T01:47:16;100560.34;;;3.51;63.71
54854;BME280;40747;49.480;8.658;2023-04-06T01:49:42;100568.13;;;3.40;64.54
54854;BME280;40747;49.480;8.658;2023-04-06T01:52:07;100560.38;;;3.57;64.30
54854;BME280;40747;49.480;8.658;2023-04-06T01:54:32;100552.47;;;3.31;64.21
54854;BME280;40747;49.480;8.658;2023-04-06T01:56:58;100555.09;;;3.29;64.43
54854;BME280;40747;49.480;8.658;2023-04-06T01:59:23;100561.19;;;3.36;64.21
54854;BME280;40747;49.480;8.658;2023-04-06T02:01:49;100558.50;;;3.14;64.43
54854;BME280;40747;49.480;8.658;2023-04-06T02:04:15;100553.28;;;3.06;65.72
54854;BME280;40747;49.480;8.658;2023-04-06T02:06:40;100555.91;;;3.14;65.13
54854;BME280;40747;49.480;8.658;2023-04-06T02:09:05;100549.81;;;3.07;65.77
54854;BME280;40747;49.480;8.658;2023-04-06T02:11:31;100553.25;;;3.00;66.17
54854;BME280;40747;49.480;8.658;2023-04-06T02:13:56;100544.50;;;2.83;66.85
54854;BME280;40747;49.480;8.658;2023-04-06T02:16:21;100534.03;;;2.69;67.52
54854;BME280;40747;49.480;8.658;2023-04-06T02:18:47;100533.97;;;2.59;67.71
54854;BME280;40747;49.480;8.658;2023-04-06T02:21:12;100540.94;;;2.65;68.55
54854;BME280;40747;49.480;8.658;2023-04-06T02:23:38;100520.03;;;2.46;68.24
54854;BME280;40747;49.480;8.658;2023-04-06T02:26:03;100545.22;;;2.54;68.11
54854;BME280;40747;49.480;8.658;2023-04-06T02:28:28;100540.91;;;2.56;67.95
54854;BME280;40747;49.480;8.658;2023-04-06T02:30:54;100553.06;;;2.60;67.66
54854;BME280;40747;49.480;8.658;2023-04-06T02:33:19;100543.50;;;2.62;67.87
54854;BME280;40747;49.480;8.658;2023-04-06T02:35:45;100545.28;;;2.68;67.41
54854;BME280;40747;49.480;8.658;2023-04-06T02:38:11;100550.41;;;2.55;67.79
54854;BME280;40747;49.480;8.658;2023-04-06T02:40:36;100536.47;;;2.41;69.33
54854;BME280;40747;49.480;8.658;2023-04-06T02:43:02;100545.13;;;2.43;69.78
54854;BME280;40747;49.480;8.658;2023-04-06T02:45:27;100551.22;;;2.43;69.32
54854;BME280;40747;49.480;8.658;2023-04-06T02:47:52;100552.97;;;2.49;69.92
54854;BME280;40747;49.480;8.658;2023-04-06T02:50:17;100554.81;;;2.66;70.36
54854;BME280;40747;49.480;8.658;2023-04-06T02:52:43;100546.19;;;2.71;70.52
54854;BME280;40747;49.480;8.658;2023-04-06T02:55:08;100554.69;;;2.45;70.12
54854;BME280;40747;49.480;8.658;2023-04-06T02:57:34;100558.03;;;2.21;70.54
54854;BME280;40747;49.480;8.658;2023-04-06T02:59:59;100555.41;;;2.21;70.56
54854;BME280;40747;49.480;8.658;2023-04-06T03:02:25;100542.31;;;2.07;70.87
54854;BME280;40747;49.480;8.658;2023-04-06T03:04:50;100547.47;;;2.04;71.36
54854;BME280;40747;49.480;8.658;2023-04-06T03:07:15;100541.56;;;2.25;71.20
54854;BME280;40747;49.480;8.658;2023-04-06T03:09:41;100548.63;;;2.45;71.22
54854;BME280;40747;49.480;8.658;2023-04-06T03:12:06;100551.34;;;2.67;70.64
54854;BME280;40747;49.480;8.658;2023-04-06T03:14:32;100550.53;;;2.77;70.50
54854;BME280;40747;49.480;8.658;2023-04-06T03:16:57;100541.00;;;2.77;70.66
54854;BME280;40747;49.480;8.658;2023-04-06T03:19:22;100548.81;;;2.79;69.53
54854;BME280;40747;49.480;8.658;2023-04-06T03:21:48;100545.31;;;2.72;70.08
54854;BME280;40747;49.480;8.658;2023-04-06T03:24:13;100553.13;;;2.77;71.96
54854;BME280;40747;49.480;8.658;2023-04-06T03:26:39;100538.31;;;2.60;71.69
54854;BME280;40747;49.480;8.658;2023-04-06T03:29:04;100553.91;;;2.56;70.50
54854;BME280;40747;49.480;8.658;2023-04-06T03:31:30;100560.91;;;2.68;69.90
54854;BME280;40747;49.480;8.658;2023-04-06T03:33:55;100556.56;;;2.70;69.84
54854;BME280;40747;49.480;8.658;2023-04-06T03:36:21;100533.09;;;2.56;71.19
54854;BME280;40747;49.480;8.658;2023-04-06T03:38:46;100549.66;;;2.73;70.82
54854;BME280;40747;49.480;8.658;2023-04-06T03:41:12;100553.19;;;2.80;70.07
54854;BME280;40747;49.480;8.658;2023-04-06T03:43:37;100560.97;;;2.80;71.25
54854;BME280;40747;49.480;8.658;2023-04-06T03:46:02;100553.97;;;2.70;71.50
54854;BME280;40747;49.480;8.658;2023-04-06T03:48:28;100553.06;;;2.60;70.87
54854;BME280;40747;49.480;8.658;2023-04-06T03:50:53;100546.09;;;2.56;70.49
54854;BME280;40747;49.480;8.658;2023-04-06T03:53:19;100553.91;;;2.62;71.33
54854;BME280;40747;49.480;8.658;2023-04-06T03:55:44;100558.94;;;2.33;69.77
54854;BME280;40747;49.480;8.658;2023-04-06T03:58:10;100567.63;;;2.32;70.03
54854;BME280;40747;49.480;8.658;2023-04-06T04:00:35;100565.03;;;2.33;69.83
54854;BME280;40747;49.480;8.658;2023-04-06T04:03:00;100571.06;;;2.34;70.81
54854;BME280;40747;49.480;8.658;2023-04-06T04:05:27;100568.31;;;2.12;71.41
54854;BME280;40747;49.480;8.658;2023-04-06T04:07:52;100572.72;;;2.19;70.16
54854;BME280;40747;49.480;8.658;2023-04-06T04:10:18;100578.88;;;2.29;70.60
54854;BME280;40747;49.480;8.658;2023-04-06T04:12:43;100574.53;;;2.28;70.31
54854;BME280;40747;49.480;8.658;2023-04-06T04:15:08;100577.06;;;2.25;70.28
54854;BME280;40747;49.480;8.658;2023-04-06T04:17:34;100567.41;;;2.02;70.46
54854;BME280;40747;49.480;8.658;2023-04-06T04:19:59;100575.94;;;1.89;70.28
54854;BME280;40747;49.480;8.658;2023-04-06T04:22:24;100587.22;;;1.91;71.14
54854;BME280;40747;49.480;8.658;2023-04-06T04:24:50;100590.66;;;1.87;71.44
54854;BME280;40747;49.480;8.658;2023-04-06T04:27:15;100597.53;;;1.86;71.85
54854;BME280;40747;49.480;8.658;2023-04-06T04:29:40;100595.84;;;1.87;72.20
54854;BME280;40747;49.480;8.658;2023-04-06T04:32:05;100594.22;;;2.00;72.63
54854;BME280;40747;49.480;8.658;2023-04-06T04:34:31;100590.78;;;2.07;73.27
54854;BME280;40747;49.480;8.658;2023-04-06T04:36:56;100590.78;;;2.02;72.80
54854;BME280;40747;49.480;8.658;2023-04-06T04:39:22;100584.75;;;2.05;72.77
54854;BME280;40747;49.480;8.658;2023-04-06T04:41:47;100582.09;;;1.99;72.39
54854;BME280;40747;49.480;8.658;2023-04-06T04:44:12;100593.19;;;1.85;72.31
54854;BME280;40747;49.480;8.658;2023-04-06T04:46:38;100600.22;;;1.94;73.01
54854;BME280;40747;49.480;8.658;2023-04-06T04:49:04;100593.31;;;1.98;73.03
54854;BME280;40747;49.480;8.658;2023-04-06T04:51:29;100596.84;;;2.06;73.43
54854;BME280;40747;49.480;8.658;2023-04-06T04:53:56;100583.56;;;1.73;74.11
54854;BME280;40747;49.480;8.658;2023-04-06T04:56:21;100597.16;;;1.47;74.61
54854;BME280;40747;49.480;8.658;2023-04-06T04:58:47;100592.66;;;1.34;74.56
54854;BME280;40747;49.480;8.658;2023-04-06T05:01:12;100601.94;;;1.13;75.63
54854;BME280;40747;49.480;8.658;2023-04-06T05:03:37;100599.25;;;1.04;75.84
54854;BME280;40747;49.480;8.658;2023-04-06T05:06:05;100604.63;;;1.18;75.71
54854;BME280;40747;49.480;8.658;2023-04-06T05:08:30;100602.03;;;1.18;75.95
54854;BME280;40747;49.480;8.658;2023-04-06T05:10:55;100610.84;;;1.33;74.82
54854;BME280;40747;49.480;8.658;2023-04-06T05:13:21;100609.06;;;1.28;75.01
54854;BME280;40747;49.480;8.658;2023-04-06T05:15:46;100611.69;;;1.31;73.67
54854;BME280;40747;49.480;8.658;2023-04-06T05:18:12;100595.19;;;1.26;73.92
54854;BME280;40747;49.480;8.658;2023-04-06T05:20:38;100613.53;;;1.42;73.54
54854;BME280;40747;49.480;8.658;2023-04-06T05:23:03;100614.41;;;1.42;73.48
54854;BME280;40747;49.480;8.658;2023-04-06T05:25:30;100617.09;;;1.52;72.52
54854;BME280;40747;49.480;8.658;2023-04-06T05:27:55;100606.56;;;1.38;72.63
54854;BME280;40747;49.480;8.658;2023-04-06T05:30:21;100589.91;;;1.19;72.45
54854;BME280;40747;49.480;8.658;2023-04-06T05:32:46;100614.25;;;1.27;72.88
54854;BME280;40747;49.480;8.658;2023-04-06T05:35:12;100616.69;;;1.18;73.98
54854;BME280;40747;49.480;8.658;2023-04-06T05:37:38;100621.09;;;1.22;73.70
54854;BME280;40747;49.480;8.658;2023-04-06T05:40:04;100618.59;;;1.29;73.17
54854;BME280;40747;49.480;8.658;2023-04-06T05:42:42;100588.13;;;1.16;73.27
54854;BME280;40747;49.480;8.658;2023-04-06T05:45:08;100614.59;;;1.58;71.64
54854;BME280;40747;49.480;8.658;2023-04-06T05:47:34;100602.59;;;1.69;70.73
54854;BME280;40747;49.480;8.658;2023-04-06T05:50:00;100609.53;;;1.73;70.34
54854;BME280;40747;49.480;8.658;2023-04-06T05:52:25;100607.09;;;1.87;70.40
54854;BME280;40747;49.480;8.658;2023-04-06T05:54:51;100601.94;;;1.92;69.58
54854;BME280;40747;49.480;8.658;2023-04-06T05:57:17;100595.19;;;2.12;69.04
54854;BME280;40747;49.480;8.658;2023-04-06T05:59:42;100604.72;;;2.13;68.31
54854;BME280;40747;49.480;8.658;2023-04-06T06:02:08;100608.25;;;2.19;68.49
54854;BME280;40747;49.480;8.658;2023-04-06T06:04:33;100587.41;;;2.12;68.84
54854;BME280;40747;49.480;8.658;2023-04-06T06:06:58;100592.66;;;2.25;69.25
54854;BME280;40747;49.480;8.658;2023-04-06T06:09:24;100596.16;;;2.24;68.46
54854;BME280;40747;49.480;8.658;2023-04-06T06:11:50;100601.53;;;2.52;69.40
54854;BME280;40747;49.480;8.658;2023-04-06T06:14:16;100609.44;;;2.66;69.65
54854;BME280;40747;49.480;8.658;2023-04-06T06:16:41;100607.69;;;2.65;70.09
54854;BME280;40747;49.480;8.658;2023-04-06T06:19:07;100607.69;;;2.61;69.35
54854;BME280;40747;49.480;8.658;2023-04-06T06:21:32;100615.63;;;2.85;70.27
54854;BME280;40747;49.480;8.658;2023-04-06T06:23:57;100618.25;;;2.88;70.47
54854;BME280;40747;49.480;8.658;2023-04-06T06:26:22;100614.75;;;2.89;70.35
54854;BME280;40747;49.480;8.658;2023-04-06T06:28:48;100595.75;;;3.01;72.35
54854;BME280;40747;49.480;8.658;2023-04-06T06:31:13;100623.63;;;3.25;72.11
54854;BME280;40747;49.480;8.658;2023-04-06T06:33:39;100624.53;;;3.36;72.62
54854;BME280;40747;49.480;8.658;2023-04-06T06:36:04;100622.81;;;3.41;72.04
54854;BME280;40747;49.480;8.658;2023-04-06T06:38:30;100618.50;;;3.47;70.86
54854;BME280;40747;49.480;8.658;2023-04-06T06:40:55;100618.50;;;3.50;70.08
54854;BME280;40747;49.480;8.658;2023-04-06T06:43:21;100612.44;;;3.54;70.01
54854;BME280;40747;49.480;8.658;2023-04-06T06:45:46;100616.81;;;3.72;70.28
54854;BME280;40747;49.480;8.658;2023-04-06T06:48:11;100585.56;;;3.61;69.95
54854;BME280;40747;49.480;8.658;2023-04-06T06:50:37;100618.63;;;4.05;71.07
54854;BME280;40747;49.480;8.658;2023-04-06T06:53:02;100616.88;;;4.21;71.69
54854;BME280;40747;49.480;8.658;2023-04-06T06:55:28;100593.44;;;4.20;70.53
54854;BME280;40747;49.480;8.658;2023-04-06T06:57:53;100617.75;;;4.45;70.88
54854;BME280;40747;49.480;8.658;2023-04-06T07:00:19;100613.38;;;4.49;69.10
54854;BME280;40747;49.480;8.658;2023-04-06T07:02:48;100609.03;;;4.58;69.09
54854;BME280;40747;49.480;8.658;2023-04-06T07:05:15;100607.25;;;4.81;69.15
54854;BME280;40747;49.480;8.658;2023-04-06T07:07:41;100610.72;;;4.95;67.94
54854;BME280;40747;49.480;8.658;2023-04-06T07:10:07;100611.50;;;5.17;69.17
54854;BME280;40747;49.480;8.658;2023-04-06T07:12:32;100577.56;;;5.14;68.33
54854;BME280;40747;49.480;8.658;2023-04-06T07:14:58;100617.41;;;5.58;68.86
54854;BME280;40747;49.480;8.658;2023-04-06T07:17:23;100608.59;;;5.74;69.28
54854;BME280;40747;49.480;8.658;2023-04-06T07:19:49;100604.22;;;5.80;66.93
54854;BME280;40747;49.480;8.658;2023-04-06T07:22:14;100604.16;;;5.89;64.33
54854;BME280;40747;49.480;8.658;2023-04-06T07:24:40;100603.19;;;6.05;64.08
54854;BME280;40747;49.480;8.658;2023-04-06T07:27:05;100608.34;;;6.18;63.67
54854;BME280;40747;49.480;8.658;2023-04-06T07:29:31;100613.31;;;6.46;61.79
54854;BME280;40747;49.480;8.658;2023-04-06T07:31:56;100612.25;;;6.68;60.57
54854;BME280;40747;49.480;8.658;2023-04-06T07:34:22;100609.28;;;6.99;59.21
54854;BME280;40747;49.480;8.658;2023-04-06T07:36:47;100602.66;;;7.44;58.26
54854;BME280;40747;49.480;8.658;2023-04-06T07:39:12;100601.00;;;7.97;56.61
54854;BME280;40747;49.480;8.658;2023-04-06T07:41:38;100607.44;;;8.34;55.35
54854;BME280;40747;49.480;8.658;2023-04-06T07:44:03;100604.34;;;8.62;54.51
54854;BME280;40747;49.480;8.658;2023-04-06T07:46:29;100610.38;;;8.67;54.78
54854;BME280;40747;49.480;8.658;2023-04-06T07:48:56;100607.06;;;9.02;53.58
54854;BME280;40747;49.480;8.658;2023-04-06T07:51:22;100602.28;;;9.25;53.75
54854;BME280;40747;49.480;8.658;2023-04-06T07:53:47;100601.16;;;9.37;52.91
54854;BME280;40747;49.480;8.658;2023-04-06T07:56:13;100602.75;;;9.83;51.95
54854;BME280;40747;49.480;8.658;2023-04-06T07:58:40;100602.19;;;10.08;51.88
54854;BME280;40747;49.480;8.658;2023-04-06T08:01:05;100600.38;;;10.10;51.85
54854;BME280;40747;49.480;8.658;2023-04-06T08:03:33;100596.59;;;10.20;51.82
54854;BME280;40747;49.480;8.658;2023-04-06T08:05:58;100610.91;;;10.46;51.32
54854;BME280;40747;49.480;8.658;2023-04-06T08:08:24;100602.03;;;10.50;51.37
54854;BME280;40747;49.480;8.658;2023-04-06T08:10:50;100593.38;;;10.79;50.13
54854;BME280;40747;49.480;8.658;2023-04-06T08:13:15;100596.84;;;10.80;49.57
54854;BME280;40747;49.480;8.658;2023-04-06T08:15:41;100611.19;;;11.03;49.27
54854;BME280;40747;49.480;8.658;2023-04-06T08:18:07;100605.59;;;11.13;50.28
54854;BME280;40747;49.480;8.658;2023-04-06T08:20:33;100612.47;;;11.19;49.78
54854;BME280;40747;49.480;8.658;2023-04-06T08:22:58;100612.66;;;11.43;48.63
54854;BME280;40747;49.480;8.658;2023-04-06T08:25:23;100599.88;;;12.16;47.77
54854;BME280;40747;49.480;8.658;2023-04-06T08:27:49;100595.41;;;12.44;46.54
54854;BME280;40747;49.480;8.658;2023-04-06T08:30:15;100611.03;;;12.77;45.26
54854;BME280;40747;49.480;8.658;2023-04-06T08:32:41;100603.09;;;13.26;46.24
54854;BME280;40747;49.480;8.658;2023-04-06T08:35:07;100606.34;;;13.33;46.02
54854;BME280;40747;49.480;8.658;2023-04-06T08:37:33;100600.03;;;13.39;44.99
54854;BME280;40747;49.480;8.658;2023-04-06T08:39:58;100605.50;;;13.33;44.91
54854;BME280;40747;49.480;8.658;2023-04-06T08:42:25;100606.28;;;13.35;45.55
54854;BME280;40747;49.480;8.658;2023-04-06T08:44:51;100605.25;;;13.40;45.14
54854;BME280;40747;49.480;8.658;2023-04-06T08:47:17;100597.91;;;13.71;44.61
54854;BME280;40747;49.480;8.658;2023-04-06T08:49:44;100591.88;;;13.20;44.49
54854;BME280;40747;49.480;8.658;2023-04-06T08:52:10;100596.84;;;12.80;45.78
54854;BME280;40747;49.480;8.658;2023-04-06T08:54:36;100606.38;;;13.09;45.05
54854;BME280;40747;49.480;8.658;2023-04-06T08:57:02;100591.72;;;13.48;43.39
54854;BME280;40747;49.480;8.658;2023-04-06T08:59:28;100581.03;;;13.26;43.99
54854;BME280;40747;49.480;8.658;2023-04-06T09:01:55;100596.34;;;13.18;43.69
54854;BME280;40747;49.480;8.658;2023-04-06T09:04:21;100588.94;;;13.51;44.04
54854;BME280;40747;49.480;8.658;2023-04-06T09:06:46;100582.97;;;13.46;44.64
54854;BME280;40747;49.480;8.658;2023-04-06T09:09:11;100596.41;;;13.41;44.52
54854;BME280;40747;49.480;8.658;2023-04-06T09:11:47;100590.88;;;13.70;45.04
54854;BME280;40747;49.480;8.658;2023-04-06T09:14:13;100593.19;;;14.22;42.80
54854;BME280;40747;49.480;8.658;2023-04-06T09:16:41;100592.50;;;14.59;43.33
54854;BME280;40747;49.480;8.658;2023-04-06T09:19:07;100591.41;;;14.22;41.63
54854;BME280;40747;49.480;8.658;2023-04-06T09:21:33;100591.91;;;14.32;44.20
54854;BME280;40747;49.480;8.658;2023-04-06T09:24:00;100593.38;;;14.81;42.89
54854;BME280;40747;49.480;8.658;2023-04-06T09:26:26;100586.88;;;15.28;41.97
54854;BME280;40747;49.480;8.658;2023-04-06T09:28:57;100586.53;;;15.54;40.94
54854;BME280;40747;49.480;8.658;2023-04-06T09:33:49;100576.09;;;15.50;40.42
54854;BME280;40747;49.480;8.658;2023-04-06T09:36:15;100581.50;;;15.48;42.22
54854;BME280;40747;49.480;8.658;2023-04-06T09:38:59;100579.19;;;15.40;40.21
54854;BME280;40747;49.480;8.658;2023-04-06T09:41:35;100580.88;;;15.03;41.59
54854;BME280;40747;49.480;8.658;2023-04-06T09:44:06;100585.38;;;15.60;42.13
54854;BME280;40747;49.480;8.658;2023-04-06T09:46:33;100566.94;;;16.13;41.79
54854;BME280;40747;49.480;8.658;2023-04-06T09:49:01;100569.41;;;15.79;41.39
54854;BME280;40747;49.480;8.658;2023-04-06T09:51:30;100567.81;;;16.48;40.71
54854;BME280;40747;49.480;8.658;2023-04-06T09:53:57;100568.25;;;16.74;39.86
54854;BME280;40747;49.480;8.658;2023-04-06T09:56:28;100571.84;;;16.38;41.96
54854;BME280;40747;49.480;8.658;2023-04-06T09:59:00;100559.16;;;16.78;38.87
54854;BME280;40747;49.480;8.658;2023-04-06T10:01:28;100564.88;;;17.69;38.93
54854;BME280;40747;49.480;8.658;2023-04-06T10:06:27;100563.41;;;16.30;39.77
54854;BME280;40747;49.480;8.658;2023-04-06T10:08:56;100571.03;;;16.71;40.01
54854;BME280;40747;49.480;8.658;2023-04-06T10:11:22;100567.28;;;16.93;39.26
54854;BME280;40747;49.480;8.658;2023-04-06T10:13:48;100554.03;;;17.25;39.05
54854;BME280;40747;49.480;8.658;2023-04-06T10:16:15;100557.22;;;17.63;38.41
54854;BME280;40747;49.480;8.658;2023-04-06T10:18:46;100558.25;;;17.77;37.62
54854;BME280;40747;49.480;8.658;2023-04-06T10:21:14;100562.56;;;18.26;38.50
54854;BME280;40747;49.480;8.658;2023-04-06T10:23:44;100556.06;;;18.46;37.19
54854;BME280;40747;49.480;8.658;2023-04-06T10:26:14;100557.66;;;18.34;38.41
54854;BME280;40747;49.480;8.658;2023-04-06T10:28:42;100554.19;;;18.77;37.78
54854;BME280;40747;49.480;8.658;2023-04-06T10:31:08;100554.53;;;18.11;37.39
54854;BME280;40747;49.480;8.658;2023-04-06T10:33:33;100529.88;;;17.92;38.66
54854;BME280;40747;49.480;8.658;2023-04-06T10:36:13;100553.09;;;18.06;37.94
54854;BME280;40747;49.480;8.658;2023-04-06T10:38:40;100554.78;;;16.95;38.37
54854;BME280;40747;49.480;8.658;2023-04-06T10:41:07;100554.03;;;17.25;38.97
54854;BME280;40747;49.480;8.658;2023-04-06T10:43:34;100552.50;;;17.84;39.26
54854;BME280;40747;49.480;8.658;2023-04-06T10:46:00;100549.66;;;17.56;37.82
54854;BME280;40747;49.480;8.658;2023-04-06T10:48:43;100544.22;;;16.76;36.59
54854;BME280;40747;49.480;8.658;2023-04-06T10:51:17;100548.34;;;15.57;36.75
54854;BME280;40747;49.480;8.658;2023-04-06T10:53:45;100537.94;;;16.26;37.87
54854;BME280;40747;49.480;8.658;2023-04-06T10:56:13;100547.00;;;16.21;39.45
54854;BME280;40747;49.480;8.658;2023-04-06T10:58:51;100544.97;;;16.27;37.85
54854;BME280;40747;49.480;8.658;2023-04-06T11:01:19;100544.00;;;16.63;37.31
54854;BME280;40747;49.480;8.658;2023-04-06T11:03:56;100543.88;;;16.31;37.99
54854;BME280;40747;49.480;8.658;2023-04-06T11:06:29;100538.09;;;16.91;38.06
54854;BME280;40747;49.480;8.658;2023-04-06T11:08:56;100531.81;;;16.59;37.46
54854;BME280;40747;49.480;8.658;2023-04-06T11:11:23;100527.56;;;16.54;36.56
54854;BME280;40747;49.480;8.658;2023-04-06T11:13:51;100523.78;;;16.76;36.50
54854;BME280;40747;49.480;8.658;2023-04-06T11:16:27;100530.41;;;17.02;36.91
54854;BME280;40747;49.480;8.658;2023-04-06T11:19:04;100498.03;;;17.58;35.52
54854;BME280;40747;49.480;8.658;2023-04-06T11:21:46;100523.13;;;18.16;34.90
54854;BME280;40747;49.480;8.658;2023-04-06T11:24:16;100510.50;;;18.04;35.85
54854;BME280;40747;49.480;8.658;2023-04-06T11:26:47;100507.13;;;17.70;35.27
54854;BME280;40747;49.480;8.658;2023-04-06T11:29:26;100508.84;;;17.07;37.73
54854;BME280;40747;49.480;8.658;2023-04-06T11:31:54;100497.28;;;17.24;34.39
54854;BME280;40747;49.480;8.658;2023-04-06T11:34:21;100505.41;;;17.53;34.87
54854;BME280;40747;49.480;8.658;2023-04-06T11:36:49;100493.72;;;17.72;34.91
54854;BME280;40747;49.480;8.658;2023-04-06T11:39:20;100495.63;;;17.38;35.46
54854;BME280;40747;49.480;8.658;2023-04-06T11:41:53;100499.66;;;16.63;35.40
54854;BME280;40747;49.480;8.658;2023-04-06T11:44:35;100498.09;;;16.93;35.92
54854;BME280;40747;49.480;8.658;2023-04-06T11:47:06;100493.31;;;16.99;35.86
54854;BME280;40747;49.480;8.658;2023-04-06T11:49:33;100493.47;;;16.63;35.18
54854;BME280;40747;49.480;8.658;2023-04-06T11:51:59;100488.00;;;15.97;35.36
54854;BME280;40747;49.480;8.658;2023-04-06T11:54:35;100488.38;;;15.89;37.37
54854;BME280;40747;49.480;8.658;2023-04-06T11:57:03;100484.72;;;15.55;36.45
54854;BME280;40747;49.480;8.658;2023-04-06T11:59:28;100485.75;;;15.70;36.18
54854;BME280;40747;49.480;8.658;2023-04-06T12:01:54;100477.75;;;16.07;36.59
54854;BME280;40747;49.480;8.658;2023-04-06T12:04:20;100460.88;;;16.26;36.05
54854;BME280;40747;49.480;8.658;2023-04-06T12:06:45;100472.34;;;16.26;36.40
54854;BME280;40747;49.480;8.658;2023-04-06T12:09:10;100470.25;;;16.66;35.21
54854;BME280;40747;49.480;8.658;2023-04-06T12:11:36;100470.66;;;17.08;34.33
54854;BME280;40747;49.480;8.658;2023-04-06T12:14:01;100459.59;;;17.00;35.36
54854;BME280;40747;49.480;8.658;2023-04-06T12:16:33;100459.75;;;16.30;34.93
54854;BME280;40747;49.480;8.658;2023-04-06T12:18:59;100464.22;;;16.29;37.57
54854;BME280;40747;49.480;8.658;2023-04-06T12:21:26;100452.91;;;16.08;35.83
54854;BME280;40747;49.480;8.658;2023-04-06T12:23:52;100453.50;;;16.13;37.06
54854;BME280;40747;49.480;8.658;2023-04-06T12:26:17;100459.63;;;15.61;36.15
54854;BME280;40747;49.480;8.658;2023-04-06T12:28:43;100459.16;;;15.89;36.01
54854;BME280;40747;49.480;8.658;2023-04-06T12:31:15;100454.19;;;15.64;36.68
54854;BME280;40747;49.480;8.658;2023-04-06T12:33:40;100460.41;;;16.00;35.28
54854;BME280;40747;49.480;8.658;2023-04-06T12:36:11;100449.72;;;16.01;35.48
54854;BME280;40747;49.480;8.658;2023-04-06T12:38:37;100447.13;;;15.82;35.97
54854;BME280;40747;49.480;8.658;2023-04-06T12:41:05;100447.53;;;15.92;35.78
54854;BME280;40747;49.480;8.658;2023-04-06T12:43:30;100445.00;;;16.07;35.30
54854;BME280;40747;49.480;8.658;2023-04-06T12:45:55;100446.50;;;15.95;36.08
54854;BME280;40747;49.480;8.658;2023-04-06T12:48:21;100443.50;;;16.36;36.08
54854;BME280;40747;49.480;8.658;2023-04-06T12:50:57;100439.22;;;16.16;35.44
54854;BME280;40747;49.480;8.658;2023-04-06T12:53:23;100449.72;;;16.52;35.14
54854;BME280;40747;49.480;8.658;2023-04-06T12:55:48;100444.91;;;16.93;35.02